sensor_id;sensor_type;location;lat;lon;timestamp;pressure;altitude;pressure_sealevel;temperature;humidity
11395;BME280;5753;54.402;10.220;2024-01-30T00:00:53;102841.69;;;7.13;83.97
11395;BME280;5753;54.402;10.220;2024-01-30T00:03:21;102845.13;;;7.12;84.89
11395;BME280;5753;54.402;10.220;2024-01-30T00:05:49;102850.25;;;7.12;85.12
11395;BME280;5753;54.402;10.220;2024-01-30T00:08:15;102857.09;;;7.07;85.37
11395;BME280;5753;54.402;10.220;2024-01-30T00:10:42;102848.53;;;7.09;85.41
11395;BME280;5753;54.402;10.220;2024-01-30T00:13:08;102847.66;;;7.07;85.42
11395;BME280;5753;54.402;10.220;2024-01-30T00:15:36;102845.09;;;7.07;85.70
11395;BME280;5753;54.402;10.220;2024-01-30T00:18:04;102844.31;;;7.16;85.43
11395;BME280;5753;54.402;10.220;2024-01-30T00:20:31;102834.84;;;7.12;85.91
11395;BME280;5753;54.402;10.220;2024-01-30T00:22:59;102836.53;;;7.05;86.43
11395;BME280;5753;54.402;10.220;2024-01-30T00:25:27;102833.13;;;7.06;86.94
11395;BME280;5753;54.402;10.220;2024-01-30T00:27:53;102837.38;;;7.07;86.90
11395;BME280;5753;54.402;10.220;2024-01-30T00:30:23;102832.25;;;7.04;87.59
11395;BME280;5753;54.402;10.220;2024-01-30T00:32:50;102830.50;;;7.00;87.41
11395;BME280;5753;54.402;10.220;2024-01-30T00:35:17;102831.34;;;6.99;87.82
11395;BME280;5753;54.402;10.220;2024-01-30T00:37:44;102837.34;;;6.96;88.16
11395;BME280;5753;54.402;10.220;2024-01-30T00:40:12;102838.16;;;6.92;87.91
11395;BME280;5753;54.402;10.220;2024-01-30T00:42:45;102845.03;;;6.92;88.09
11395;BME280;5753;54.402;10.220;2024-01-30T00:45:14;102834.69;;;6.86;87.93
11395;BME280;5753;54.402;10.220;2024-01-30T00:47:42;102843.25;;;6.82;87.85
11395;BME280;5753;54.402;10.220;2024-01-30T00:50:10;102839.78;;;6.80;88.12
11395;BME280;5753;54.402;10.220;2024-01-30T00:52:37;102839.75;;;6.78;88.10
11395;BME280;5753;54.402;10.220;2024-01-30T00:55:05;102839.75;;;6.75;87.78
11395;BME280;5753;54.402;10.220;2024-01-30T00:57:32;102838.03;;;6.74;87.59
11395;BME280;5753;54.402;10.220;2024-01-30T01:00:02;102832.03;;;6.74;88.08
11395;BME280;5753;54.402;10.220;2024-01-30T01:02:30;102829.47;;;6.74;87.78
11395;BME280;5753;54.402;10.220;2024-01-30T01:04:58;102837.19;;;6.75;87.59
11395;BME280;5753;54.402;10.220;2024-01-30T01:07:25;102832.06;;;6.78;87.77
11395;BME280;5753;54.402;10.220;2024-01-30T01:09:52;102838.16;;;6.91;87.92
11395;BME280;5753;54.402;10.220;2024-01-30T01:12:21;102839.91;;;6.96;88.35
11395;BME280;5753;54.402;10.220;2024-01-30T01:14:47;102836.47;;;6.96;87.45
11395;BME280;5753;54.402;10.220;2024-01-30T01:17:15;102844.19;;;6.96;87.26
11395;BME280;5753;54.402;10.220;2024-01-30T01:19:41;102837.34;;;6.98;87.21
11395;BME280;5753;54.402;10.220;2024-01-30T01:22:07;102832.22;;;6.99;87.16
11395;BME280;5753;54.402;10.220;2024-01-30T01:24:35;102833.94;;;7.01;86.93
11395;BME280;5753;54.402;10.220;2024-01-30T01:27:01;102833.06;;;7.00;86.38
11395;BME280;5753;54.402;10.220;2024-01-30T01:29:29;102833.09;;;7.02;86.37
11395;BME280;5753;54.402;10.220;2024-01-30T01:31:59;102830.53;;;7.05;85.83
11395;BME280;5753;54.402;10.220;2024-01-30T01:34:25;102829.66;;;7.01;85.98
11395;BME280;5753;54.402;10.220;2024-01-30T01:36:52;102817.66;;;7.00;85.42
11395;BME280;5753;54.402;10.220;2024-01-30T01:39:23;102821.06;;;6.97;85.10
11395;BME280;5753;54.402;10.220;2024-01-30T01:41:51;102817.66;;;6.97;84.89
11395;BME280;5753;54.402;10.220;2024-01-30T01:44:19;102815.91;;;6.97;85.20
11395;BME280;5753;54.402;10.220;2024-01-30T01:46:45;102807.38;;;6.95;84.42
11395;BME280;5753;54.402;10.220;2024-01-30T01:49:12;102802.22;;;6.95;85.04
11395;BME280;5753;54.402;10.220;2024-01-30T01:51:43;102797.09;;;6.95;84.48
11395;BME280;5753;54.402;10.220;2024-01-30T01:54:12;102795.38;;;6.97;84.58
11395;BME280;5753;54.402;10.220;2024-01-30T01:56:40;102795.41;;;6.99;84.83
11395;BME280;5753;54.402;10.220;2024-01-30T01:59:13;102797.97;;;7.01;84.38
11395;BME280;5753;54.402;10.220;2024-01-30T02:01:41;102788.56;;;7.04;84.27
11395;BME280;5753;54.402;10.220;2024-01-30T02:04:08;102788.56;;;7.04;84.22
11395;BME280;5753;54.402;10.220;2024-01-30T02:06:36;102784.28;;;7.03;84.08
11395;BME280;5753;54.402;10.220;2024-01-30T02:09:05;102783.41;;;7.03;83.59
11395;BME280;5753;54.402;10.220;2024-01-30T02:11:34;102775.72;;;6.96;83.85
11395;BME280;5753;54.402;10.220;2024-01-30T02:14:05;102780.81;;;6.95;83.81
11395;BME280;5753;54.402;10.220;2024-01-30T02:16:33;102788.56;;;6.96;83.60
11395;BME280;5753;54.402;10.220;2024-01-30T02:19:00;102783.47;;;7.06;83.19
11395;BME280;5753;54.402;10.220;2024-01-30T02:21:28;102786.06;;;7.15;82.74
11395;BME280;5753;54.402;10.220;2024-01-30T02:23:57;102780.94;;;7.18;82.69
11395;BME280;5753;54.402;10.220;2024-01-30T02:26:26;102774.09;;;7.20;82.16
11395;BME280;5753;54.402;10.220;2024-01-30T02:28:52;102784.38;;;7.20;82.07
11395;BME280;5753;54.402;10.220;2024-01-30T02:31:18;102782.66;;;7.16;81.87
11395;BME280;5753;54.402;10.220;2024-01-30T02:33:45;102780.91;;;7.12;81.58
11395;BME280;5753;54.402;10.220;2024-01-30T02:36:12;102774.88;;;7.08;81.83
11395;BME280;5753;54.402;10.220;2024-01-30T02:38:39;102773.16;;;6.99;81.76
11395;BME280;5753;54.402;10.220;2024-01-30T02:41:07;102760.25;;;6.93;81.99
11395;BME280;5753;54.402;10.220;2024-01-30T02:43:33;102752.50;;;6.84;82.23
11395;BME280;5753;54.402;10.220;2024-01-30T02:46:00;102754.13;;;6.69;82.65
11395;BME280;5753;54.402;10.220;2024-01-30T02:48:28;102758.31;;;6.51;82.68
11395;BME280;5753;54.402;10.220;2024-01-30T02:50:55;102751.34;;;6.35;83.13
11395;BME280;5753;54.402;10.220;2024-01-30T02:53:22;102744.41;;;6.22;83.35
11395;BME280;5753;54.402;10.220;2024-01-30T02:55:49;102740.94;;;6.14;83.64
11395;BME280;5753;54.402;10.220;2024-01-30T02:58:15;102738.31;;;6.08;83.76
11395;BME280;5753;54.402;10.220;2024-01-30T03:00:43;102739.13;;;6.02;84.04
11395;BME280;5753;54.402;10.220;2024-01-30T03:03:11;102740.78;;;5.97;84.23
11395;BME280;5753;54.402;10.220;2024-01-30T03:05:38;102728.75;;;5.92;84.38
11395;BME280;5753;54.402;10.220;2024-01-30T03:08:06;102718.38;;;5.81;84.59
11395;BME280;5753;54.402;10.220;2024-01-30T03:10:34;102716.59;;;5.73;84.48
11395;BME280;5753;54.402;10.220;2024-01-30T03:13:00;102715.69;;;5.66;84.88
11395;BME280;5753;54.402;10.220;2024-01-30T03:15:30;102724.09;;;5.54;85.21
11395;BME280;5753;54.402;10.220;2024-01-30T03:17:58;102723.19;;;5.46;85.55
11395;BME280;5753;54.402;10.220;2024-01-30T03:20:25;102725.69;;;5.43;85.58
11395;BME280;5753;54.402;10.220;2024-01-30T03:22:51;102730.78;;;5.40;85.53
11395;BME280;5753;54.402;10.220;2024-01-30T03:25:18;102723.84;;;5.30;85.99
11395;BME280;5753;54.402;10.220;2024-01-30T03:27:45;102724.59;;;5.23;85.77
11395;BME280;5753;54.402;10.220;2024-01-30T03:30:21;102729.72;;;5.21;85.81
11395;BME280;5753;54.402;10.220;2024-01-30T03:32:48;102730.63;;;5.27;86.20
11395;BME280;5753;54.402;10.220;2024-01-30T03:35:15;102733.91;;;5.15;85.96
11395;BME280;5753;54.402;10.220;2024-01-30T03:37:43;102726.97;;;5.06;86.10
11395;BME280;5753;54.402;10.220;2024-01-30T03:40:11;102732.84;;;4.99;86.81
11395;BME280;5753;54.402;10.220;2024-01-30T03:42:39;102727.72;;;4.99;86.52
11395;BME280;5753;54.402;10.220;2024-01-30T03:45:08;102735.22;;;4.86;86.99
11395;BME280;5753;54.402;10.220;2024-01-30T03:47:35;102733.56;;;4.89;87.20
11395;BME280;5753;54.402;10.220;2024-01-30T03:50:02;102731.00;;;4.89;86.84
11395;BME280;5753;54.402;10.220;2024-01-30T03:52:32;102727.78;;;5.02;86.70
11395;BME280;5753;54.402;10.220;2024-01-30T03:55:01;102730.28;;;4.99;86.97
11395;BME280;5753;54.402;10.220;2024-01-30T03:57:29;102725.16;;;4.98;86.57
11395;BME280;5753;54.402;10.220;2024-01-30T03:59:59;102726.03;;;4.98;86.56
11395;BME280;5753;54.402;10.220;2024-01-30T04:02:25;102727.72;;;4.99;86.42
11395;BME280;5753;54.402;10.220;2024-01-30T04:04:53;102725.97;;;4.95;86.44
11395;BME280;5753;54.402;10.220;2024-01-30T04:07:21;102731.06;;;4.92;86.79
11395;BME280;5753;54.402;10.220;2024-01-30T04:09:47;102731.16;;;4.98;86.54
11395;BME280;5753;54.402;10.220;2024-01-30T04:12:15;102733.66;;;4.94;86.74
11395;BME280;5753;54.402;10.220;2024-01-30T04:14:44;102725.03;;;4.87;86.77
11395;BME280;5753;54.402;10.220;2024-01-30T04:17:11;102720.75;;;4.89;86.31
11395;BME280;5753;54.402;10.220;2024-01-30T04:19:41;102721.56;;;4.84;86.34
11395;BME280;5753;54.402;10.220;2024-01-30T04:22:08;102719.91;;;4.87;86.13
11395;BME280;5753;54.402;10.220;2024-01-30T04:24:35;102714.66;;;4.79;86.08
11395;BME280;5753;54.402;10.220;2024-01-30T04:27:03;102713.75;;;4.74;86.60
11395;BME280;5753;54.402;10.220;2024-01-30T04:29:30;102713.84;;;4.79;86.19
11395;BME280;5753;54.402;10.220;2024-01-30T04:31:58;102700.91;;;4.71;86.04
11395;BME280;5753;54.402;10.220;2024-01-30T04:34:26;102707.78;;;4.74;86.40
11395;BME280;5753;54.402;10.220;2024-01-30T04:36:53;102707.75;;;4.69;86.38
11395;BME280;5753;54.402;10.220;2024-01-30T04:39:19;102709.47;;;4.72;86.02
11395;BME280;5753;54.402;10.220;2024-01-30T04:41:47;102710.47;;;4.83;85.57
11395;BME280;5753;54.402;10.220;2024-01-30T04:44:14;102706.94;;;4.73;85.61
11395;BME280;5753;54.402;10.220;2024-01-30T04:46:40;102713.84;;;4.80;85.30
11395;BME280;5753;54.402;10.220;2024-01-30T04:49:07;102708.84;;;4.88;85.32
11395;BME280;5753;54.402;10.220;2024-01-30T04:51:37;102707.06;;;4.86;84.81
11395;BME280;5753;54.402;10.220;2024-01-30T04:54:04;102707.94;;;4.86;84.44
11395;BME280;5753;54.402;10.220;2024-01-30T04:56:32;102701.16;;;4.88;84.19
11395;BME280;5753;54.402;10.220;2024-01-30T04:58:58;102702.84;;;4.89;83.95
11395;BME280;5753;54.402;10.220;2024-01-30T05:01:24;102702.06;;;4.93;83.94
11395;BME280;5753;54.402;10.220;2024-01-30T05:03:52;102697.72;;;4.89;83.79
11395;BME280;5753;54.402;10.220;2024-01-30T05:06:27;102700.22;;;4.83;83.74
11395;BME280;5753;54.402;10.220;2024-01-30T05:08:54;102691.66;;;4.81;83.91
11395;BME280;5753;54.402;10.220;2024-01-30T05:11:22;102699.25;;;4.73;83.93
11395;BME280;5753;54.402;10.220;2024-01-30T05:13:51;102694.09;;;4.72;83.97
11395;BME280;5753;54.402;10.220;2024-01-30T05:16:18;102694.09;;;4.72;83.93
11395;BME280;5753;54.402;10.220;2024-01-30T05:18:46;102686.34;;;4.66;83.43
11395;BME280;5753;54.402;10.220;2024-01-30T05:21:14;102684.63;;;4.65;83.75
11395;BME280;5753;54.402;10.220;2024-01-30T05:23:41;102684.56;;;4.60;83.58
11395;BME280;5753;54.402;10.220;2024-01-30T05:26:09;102684.53;;;4.57;83.55
11395;BME280;5753;54.402;10.220;2024-01-30T05:28:36;102689.59;;;4.53;83.70
11395;BME280;5753;54.402;10.220;2024-01-30T05:31:03;102692.88;;;4.44;84.19
11395;BME280;5753;54.402;10.220;2024-01-30T05:33:30;102682.59;;;4.41;83.92
11395;BME280;5753;54.402;10.220;2024-01-30T05:35:57;102686.06;;;4.46;84.10
11395;BME280;5753;54.402;10.220;2024-01-30T05:38:24;102686.03;;;4.43;84.16
11395;BME280;5753;54.402;10.220;2024-01-30T05:40:50;102680.09;;;4.44;83.62
11395;BME280;5753;54.402;10.220;2024-01-30T05:43:18;102673.28;;;4.46;83.74
11395;BME280;5753;54.402;10.220;2024-01-30T05:45:44;102661.34;;;4.47;83.72
11395;BME280;5753;54.402;10.220;2024-01-30T05:48:11;102667.25;;;4.41;83.59
11395;BME280;5753;54.402;10.220;2024-01-30T05:50:38;102676.59;;;4.41;83.22
11395;BME280;5753;54.402;10.220;2024-01-30T05:53:05;102666.38;;;4.39;83.26
11395;BME280;5753;54.402;10.220;2024-01-30T05:55:32;102667.97;;;4.32;83.71
11395;BME280;5753;54.402;10.220;2024-01-30T05:57:59;102675.72;;;4.35;83.37
11395;BME280;5753;54.402;10.220;2024-01-30T06:00:26;102684.16;;;4.31;83.42
11395;BME280;5753;54.402;10.220;2024-01-30T06:02:54;102676.72;;;4.48;83.44
11395;BME280;5753;54.402;10.220;2024-01-30T06:05:22;102678.47;;;4.51;82.92
11395;BME280;5753;54.402;10.220;2024-01-30T06:07:50;102685.31;;;4.52;82.54
11395;BME280;5753;54.402;10.220;2024-01-30T06:10:17;102678.53;;;4.55;82.55
11395;BME280;5753;54.402;10.220;2024-01-30T06:12:43;102673.31;;;4.48;82.78
11395;BME280;5753;54.402;10.220;2024-01-30T06:15:10;102675.03;;;4.49;82.56
11395;BME280;5753;54.402;10.220;2024-01-30T06:17:38;102681.03;;;4.49;82.92
11395;BME280;5753;54.402;10.220;2024-01-30T06:20:06;102680.16;;;4.49;82.86
11395;BME280;5753;54.402;10.220;2024-01-30T06:22:33;102680.06;;;4.43;82.74
11395;BME280;5753;54.402;10.220;2024-01-30T06:25:01;102665.50;;;4.38;83.00
11395;BME280;5753;54.402;10.220;2024-01-30T06:27:29;102670.59;;;4.35;83.26
11395;BME280;5753;54.402;10.220;2024-01-30T06:29:56;102669.72;;;4.36;82.75
11395;BME280;5753;54.402;10.220;2024-01-30T06:32:24;102666.44;;;4.44;82.81
11395;BME280;5753;54.402;10.220;2024-01-30T06:34:50;102667.31;;;4.44;82.96
11395;BME280;5753;54.402;10.220;2024-01-30T06:37:17;102664.69;;;4.40;82.92
11395;BME280;5753;54.402;10.220;2024-01-30T06:39:44;102659.72;;;4.52;82.80
11395;BME280;5753;54.402;10.220;2024-01-30T06:42:12;102655.44;;;4.49;83.20
11395;BME280;5753;54.402;10.220;2024-01-30T06:44:45;102648.63;;;4.50;83.11
11395;BME280;5753;54.402;10.220;2024-01-30T06:47:12;102644.44;;;4.56;83.33
11395;BME280;5753;54.402;10.220;2024-01-30T06:49:40;102650.38;;;4.54;83.18
11395;BME280;5753;54.402;10.220;2024-01-30T06:52:09;102650.44;;;4.58;83.04
11395;BME280;5753;54.402;10.220;2024-01-30T06:54:35;102638.41;;;4.51;83.22
11395;BME280;5753;54.402;10.220;2024-01-30T06:57:04;102643.66;;;4.62;82.95
11395;BME280;5753;54.402;10.220;2024-01-30T06:59:32;102637.72;;;4.66;83.07
11395;BME280;5753;54.402;10.220;2024-01-30T07:01:59;102630.88;;;4.65;82.78
11395;BME280;5753;54.402;10.220;2024-01-30T07:04:27;102632.56;;;4.60;82.85
11395;BME280;5753;54.402;10.220;2024-01-30T07:06:55;102625.63;;;4.53;83.22
11395;BME280;5753;54.402;10.220;2024-01-30T07:09:24;102629.09;;;4.56;82.74
11395;BME280;5753;54.402;10.220;2024-01-30T07:11:54;102630.81;;;4.57;82.95
11395;BME280;5753;54.402;10.220;2024-01-30T07:14:23;102629.06;;;4.53;83.05
11395;BME280;5753;54.402;10.220;2024-01-30T07:16:49;102622.25;;;4.55;82.59
11395;BME280;5753;54.402;10.220;2024-01-30T07:19:16;102628.19;;;4.53;83.06
11395;BME280;5753;54.402;10.220;2024-01-30T07:21:44;102622.38;;;4.64;82.74
11395;BME280;5753;54.402;10.220;2024-01-30T07:24:12;102629.13;;;4.59;82.75
11395;BME280;5753;54.402;10.220;2024-01-30T07:26:40;102638.63;;;4.68;83.02
11395;BME280;5753;54.402;10.220;2024-01-30T07:29:08;102635.25;;;4.72;82.74
11395;BME280;5753;54.402;10.220;2024-01-30T07:31:34;102631.03;;;4.75;82.74
11395;BME280;5753;54.402;10.220;2024-01-30T07:34:02;102622.53;;;4.79;82.44
11395;BME280;5753;54.402;10.220;2024-01-30T07:36:30;102622.47;;;4.72;82.72
11395;BME280;5753;54.402;10.220;2024-01-30T07:38:56;102622.41;;;4.67;82.70
11395;BME280;5753;54.402;10.220;2024-01-30T07:41:24;102625.81;;;4.68;82.41
11395;BME280;5753;54.402;10.220;2024-01-30T07:43:55;102613.13;;;4.75;82.17
11395;BME280;5753;54.402;10.220;2024-01-30T07:46:23;102620.78;;;4.75;82.57
11395;BME280;5753;54.402;10.220;2024-01-30T07:48:52;102619.94;;;4.76;82.88
11395;BME280;5753;54.402;10.220;2024-01-30T07:51:22;102618.28;;;4.80;82.65
11395;BME280;5753;54.402;10.220;2024-01-30T07:53:48;102619.22;;;4.87;82.62
11395;BME280;5753;54.402;10.220;2024-01-30T07:56:16;102616.66;;;4.87;82.46
11395;BME280;5753;54.402;10.220;2024-01-30T07:58:44;102620.03;;;4.82;82.40
11395;BME280;5753;54.402;10.220;2024-01-30T08:01:12;102611.47;;;4.80;82.65
11395;BME280;5753;54.402;10.220;2024-01-30T08:03:38;102608.09;;;4.83;82.70
11395;BME280;5753;54.402;10.220;2024-01-30T08:06:09;102619.22;;;4.87;82.65
11395;BME280;5753;54.402;10.220;2024-01-30T08:08:35;102612.47;;;4.95;82.49
11395;BME280;5753;54.402;10.220;2024-01-30T08:11:04;102603.97;;;4.96;82.42
11395;BME280;5753;54.402;10.220;2024-01-30T08:13:30;102591.22;;;5.00;81.90
11395;BME280;5753;54.402;10.220;2024-01-30T08:15:58;102587.78;;;4.98;82.02
11395;BME280;5753;54.402;10.220;2024-01-30T08:18:26;102571.63;;;5.05;81.75
11395;BME280;5753;54.402;10.220;2024-01-30T08:20:54;102569.97;;;5.09;82.23
11395;BME280;5753;54.402;10.220;2024-01-30T08:23:20;102565.75;;;5.15;82.00
11395;BME280;5753;54.402;10.220;2024-01-30T08:25:48;102560.69;;;5.20;81.84
11395;BME280;5753;54.402;10.220;2024-01-30T08:28:18;102557.31;;;5.22;81.73
11395;BME280;5753;54.402;10.220;2024-01-30T08:30:44;102538.59;;;5.31;81.05
11395;BME280;5753;54.402;10.220;2024-01-30T08:33:10;102542.03;;;5.35;81.37
11395;BME280;5753;54.402;10.220;2024-01-30T08:35:37;102540.34;;;5.38;81.32
11395;BME280;5753;54.402;10.220;2024-01-30T08:38:04;102535.25;;;5.40;80.91
11395;BME280;5753;54.402;10.220;2024-01-30T08:40:31;102549.81;;;5.47;80.78
11395;BME280;5753;54.402;10.220;2024-01-30T08:42:58;102541.31;;;5.54;81.18
11395;BME280;5753;54.402;10.220;2024-01-30T08:45:26;102546.47;;;5.57;81.20
11395;BME280;5753;54.402;10.220;2024-01-30T08:47:52;102541.44;;;5.66;80.95
11395;BME280;5753;54.402;10.220;2024-01-30T08:50:19;102547.41;;;5.69;80.68
11395;BME280;5753;54.402;10.220;2024-01-30T08:52:45;102542.34;;;5.76;80.72
11395;BME280;5753;54.402;10.220;2024-01-30T08:55:13;102545.78;;;5.79;80.60
11395;BME280;5753;54.402;10.220;2024-01-30T08:57:41;102542.47;;;5.89;80.24
11395;BME280;5753;54.402;10.220;2024-01-30T09:00:08;102551.03;;;5.94;80.15
11395;BME280;5753;54.402;10.220;2024-01-30T09:02:37;102556.16;;;5.97;80.23
11395;BME280;5753;54.402;10.220;2024-01-30T09:05:05;102546.81;;;6.04;80.14
11395;BME280;5753;54.402;10.220;2024-01-30T09:07:32;102551.13;;;6.09;79.59
11395;BME280;5753;54.402;10.220;2024-01-30T09:10:00;102553.72;;;6.17;79.40
11395;BME280;5753;54.402;10.220;2024-01-30T09:12:28;102553.75;;;6.25;79.56
11395;BME280;5753;54.402;10.220;2024-01-30T09:14:56;102561.47;;;6.29;79.14
11395;BME280;5753;54.402;10.220;2024-01-30T09:17:24;102561.53;;;6.41;79.34
11395;BME280;5753;54.402;10.220;2024-01-30T09:19:50;102561.56;;;6.52;79.08
11395;BME280;5753;54.402;10.220;2024-01-30T09:22:17;102550.47;;;6.59;78.79
11395;BME280;5753;54.402;10.220;2024-01-30T09:24:44;102556.50;;;6.75;78.87
11395;BME280;5753;54.402;10.220;2024-01-30T09:27:10;102556.53;;;6.88;78.45
11395;BME280;5753;54.402;10.220;2024-01-30T09:29:37;102575.34;;;6.84;77.72
11395;BME280;5753;54.402;10.220;2024-01-30T09:32:04;102568.50;;;6.92;77.60
11395;BME280;5753;54.402;10.220;2024-01-30T09:34:33;102571.09;;;6.95;77.82
11395;BME280;5753;54.402;10.220;2024-01-30T09:37:01;102561.69;;;7.02;77.25
11395;BME280;5753;54.402;10.220;2024-01-30T09:39:29;102545.44;;;7.09;77.51
11395;BME280;5753;54.402;10.220;2024-01-30T09:42:20;102533.44;;;7.17;77.21
11395;BME280;5753;54.402;10.220;2024-01-30T09:44:51;102535.19;;;7.20;76.98
11395;BME280;5753;54.402;10.220;2024-01-30T09:47:22;102537.72;;;7.32;76.86
11395;BME280;5753;54.402;10.220;2024-01-30T09:49:50;102522.31;;;7.32;76.64
11395;BME280;5753;54.402;10.220;2024-01-30T09:52:17;102522.31;;;7.32;76.46
11395;BME280;5753;54.402;10.220;2024-01-30T09:54:46;102521.47;;;7.34;76.52
11395;BME280;5753;54.402;10.220;2024-01-30T09:57:15;102530.03;;;7.39;75.95
11395;BME280;5753;54.402;10.220;2024-01-30T09:59:42;102541.19;;;7.45;75.93
11395;BME280;5753;54.402;10.220;2024-01-30T10:02:11;102552.31;;;7.45;76.26
11395;BME280;5753;54.402;10.220;2024-01-30T10:04:39;102548.03;;;7.50;75.69
11395;BME280;5753;54.402;10.220;2024-01-30T10:07:06;102556.59;;;7.48;75.56
11395;BME280;5753;54.402;10.220;2024-01-30T10:09:37;102558.28;;;7.47;76.18
11395;BME280;5753;54.402;10.220;2024-01-30T10:12:06;102560.00;;;7.51;75.92
11395;BME280;5753;54.402;10.220;2024-01-30T10:14:42;102542.00;;;7.57;76.09
11395;BME280;5753;54.402;10.220;2024-01-30T10:17:12;102554.00;;;7.57;75.89
11395;BME280;5753;54.402;10.220;2024-01-30T10:19:41;102537.75;;;7.59;75.58
11395;BME280;5753;54.402;10.220;2024-01-30T10:22:09;102534.28;;;7.72;75.52
11395;BME280;5753;54.402;10.220;2024-01-30T10:24:38;102532.56;;;7.77;75.72
11395;BME280;5753;54.402;10.220;2024-01-30T10:27:08;102528.28;;;7.82;74.93
11395;BME280;5753;54.402;10.220;2024-01-30T10:29:35;102517.09;;;7.93;74.67
11395;BME280;5753;54.402;10.220;2024-01-30T10:32:04;102533.38;;;7.96;74.80
11395;BME280;5753;54.402;10.220;2024-01-30T10:34:33;102539.38;;;7.98;75.00
11395;BME280;5753;54.402;10.220;2024-01-30T10:37:11;102526.47;;;8.09;74.74
11395;BME280;5753;54.402;10.220;2024-01-30T10:39:47;102538.47;;;8.13;74.09
11395;BME280;5753;54.402;10.220;2024-01-30T10:42:15;102518.72;;;8.16;74.41
11395;BME280;5753;54.402;10.220;2024-01-30T10:47:25;102516.09;;;8.28;73.75
11395;BME280;5753;54.402;10.220;2024-01-30T10:49:54;102513.53;;;8.33;73.60
11395;BME280;5753;54.402;10.220;2024-01-30T10:52:24;102500.69;;;8.30;74.17
11395;BME280;5753;54.402;10.220;2024-01-30T10:54:55;102501.53;;;8.35;73.44
11395;BME280;5753;54.402;10.220;2024-01-30T10:57:26;102498.97;;;8.37;73.88
11395;BME280;5753;54.402;10.220;2024-01-30T11:00:00;102496.34;;;8.38;73.57
11395;BME280;5753;54.402;10.220;2024-01-30T11:02:33;102483.47;;;8.44;73.17
11395;BME280;5753;54.402;10.220;2024-01-30T11:05:00;102492.00;;;8.49;73.12
11395;BME280;5753;54.402;10.220;2024-01-30T11:07:29;102483.41;;;8.55;73.40
11395;BME280;5753;54.402;10.220;2024-01-30T11:10:20;102480.84;;;8.55;73.05
11395;BME280;5753;54.402;10.220;2024-01-30T11:12:47;102479.09;;;8.60;73.37
11395;BME280;5753;54.402;10.220;2024-01-30T11:15:15;102476.50;;;8.61;73.24
11395;BME280;5753;54.402;10.220;2024-01-30T11:18:05;102477.38;;;8.59;73.42
11395;BME280;5753;54.402;10.220;2024-01-30T11:20:32;102492.81;;;8.57;73.07
11395;BME280;5753;54.402;10.220;2024-01-30T11:23:00;102498.81;;;8.58;73.09
11395;BME280;5753;54.402;10.220;2024-01-30T11:25:33;102496.31;;;8.43;73.84
11395;BME280;5753;54.402;10.220;2024-01-30T11:27:59;102510.09;;;8.28;73.73
11395;BME280;5753;54.402;10.220;2024-01-30T11:30:32;102511.00;;;8.15;74.33
11395;BME280;5753;54.402;10.220;2024-01-30T11:33:04;102510.22;;;8.02;74.55
11395;BME280;5753;54.402;10.220;2024-01-30T11:35:34;102511.97;;;7.93;74.96
11395;BME280;5753;54.402;10.220;2024-01-30T11:38:02;102510.22;;;7.90;75.44
11395;BME280;5753;54.402;10.220;2024-01-30T11:40:31;102509.38;;;7.91;75.74
11395;BME280;5753;54.402;10.220;2024-01-30T11:43:02;102499.09;;;7.93;75.78
11395;BME280;5753;54.402;10.220;2024-01-30T11:45:29;102495.66;;;7.97;75.59
11395;BME280;5753;54.402;10.220;2024-01-30T11:47:55;102487.91;;;8.01;75.74
11395;BME280;5753;54.402;10.220;2024-01-30T11:50:22;102476.75;;;8.04;75.50
11395;BME280;5753;54.402;10.220;2024-01-30T11:52:49;102486.19;;;8.02;75.85
11395;BME280;5753;54.402;10.220;2024-01-30T11:55:17;102472.50;;;8.03;76.20
11395;BME280;5753;54.402;10.220;2024-01-30T11:57:44;102466.47;;;8.05;75.85
11395;BME280;5753;54.402;10.220;2024-01-30T12:00:21;102459.56;;;8.16;75.85
11395;BME280;5753;54.402;10.220;2024-01-30T12:02:55;102450.94;;;8.26;75.67
11395;BME280;5753;54.402;10.220;2024-01-30T12:05:25;102449.19;;;8.35;75.54
11395;BME280;5753;54.402;10.220;2024-01-30T12:07:53;102435.41;;;8.43;75.39
11395;BME280;5753;54.402;10.220;2024-01-30T12:10:22;102431.13;;;8.45;75.30
11395;BME280;5753;54.402;10.220;2024-01-30T12:12:50;102413.00;;;8.57;74.98
11395;BME280;5753;54.402;10.220;2024-01-30T12:15:20;102423.28;;;8.60;74.43
11395;BME280;5753;54.402;10.220;2024-01-30T12:17:48;102446.47;;;8.60;74.39
11395;BME280;5753;54.402;10.220;2024-01-30T12:20:17;102463.63;;;8.57;74.35
11395;BME280;5753;54.402;10.220;2024-01-30T12:22:47;102454.28;;;8.45;74.51
11395;BME280;5753;54.402;10.220;2024-01-30T12:25:18;102466.34;;;8.42;74.61
11395;BME280;5753;54.402;10.220;2024-01-30T12:27:49;102456.03;;;8.39;74.82
11395;BME280;5753;54.402;10.220;2024-01-30T12:30:20;102444.88;;;8.40;75.49
11395;BME280;5753;54.402;10.220;2024-01-30T12:32:50;102448.31;;;8.40;74.95
11395;BME280;5753;54.402;10.220;2024-01-30T12:35:21;102444.91;;;8.34;75.51
11395;BME280;5753;54.402;10.220;2024-01-30T12:37:49;102438.88;;;8.39;75.77
11395;BME280;5753;54.402;10.220;2024-01-30T12:40:17;102446.56;;;8.44;75.45
11395;BME280;5753;54.402;10.220;2024-01-30T12:42:47;102441.41;;;8.47;75.41
11395;BME280;5753;54.402;10.220;2024-01-30T12:45:19;102431.97;;;8.44;75.27
11395;BME280;5753;54.402;10.220;2024-01-30T12:47:48;102418.25;;;8.47;75.45
11395;BME280;5753;54.402;10.220;2024-01-30T12:50:16;102429.38;;;8.50;75.66
11395;BME280;5753;54.402;10.220;2024-01-30T12:52:43;102442.31;;;8.41;76.12
11395;BME280;5753;54.402;10.220;2024-01-30T12:55:10;102456.91;;;8.36;76.28
11395;BME280;5753;54.402;10.220;2024-01-30T12:57:38;102442.34;;;8.35;76.02
11395;BME280;5753;54.402;10.220;2024-01-30T13:00:06;102433.75;;;8.35;76.22
11395;BME280;5753;54.402;10.220;2024-01-30T13:02:35;102433.72;;;8.39;76.56
11395;BME280;5753;54.402;10.220;2024-01-30T13:05:07;102433.69;;;8.44;76.36
11395;BME280;5753;54.402;10.220;2024-01-30T13:07:33;102438.84;;;8.45;76.32